sensor_id;sensor_type;location;lat;lon;timestamp;pressure;altitude;pressure_sealevel;temperature;humidity
13968;BME280;39536;52.198;9.920;2023-02-12T00:02:15;102710.81;;;7.53;100.00
13968;BME280;39536;52.198;9.920;2023-02-12T00:04:43;102715.03;;;7.47;100.00
13968;BME280;39536;52.198;9.920;2023-02-12T00:07:11;102711.69;;;7.52;100.00
13968;BME280;39536;52.198;9.920;2023-02-12T00:09:37;102718.59;;;7.53;100.00
13968;BME280;39536;52.198;9.920;2023-02-12T00:12:04;102724.69;;;7.57;100.00
13968;BME280;39536;52.198;9.920;2023-02-12T00:14:30;102727.25;;;7.54;100.00
13968;BME280;39536;52.198;9.920;2023-02-12T00:16:58;102720.31;;;7.51;100.00
13968;BME280;39536;52.198;9.920;2023-02-12T00:19:25;102723.78;;;7.52;100.00
13968;BME280;39536;52.198;9.920;2023-02-12T00:21:51;102715.97;;;7.50;100.00
13968;BME280;39536;52.198;9.920;2023-02-12T00:24:19;102731.50;;;7.49;100.00
13968;BME280;39536;52.198;9.920;2023-02-12T00:26:45;102728.09;;;7.53;100.00
13968;BME280;39536;52.198;9.920;2023-02-12T00:29:13;102733.28;;;7.53;100.00
13968;BME280;39536;52.198;9.920;2023-02-12T00:31:39;102733.25;;;7.50;100.00
13968;BME280;39536;52.198;9.920;2023-02-12T00:34:06;102735.88;;;7.51;100.00
13968;BME280;39536;52.198;9.920;2023-02-12T00:36:33;102728.06;;;7.48;100.00
13968;BME280;39536;52.198;9.920;2023-02-12T00:39:00;102728.91;;;7.49;100.00
13968;BME280;39536;52.198;9.920;2023-02-12T00:41:28;102728.94;;;7.50;100.00
13968;BME280;39536;52.198;9.920;2023-02-12T00:43:55;102729.00;;;7.55;100.00
13968;BME280;39536;52.198;9.920;2023-02-12T00:46:21;102728.91;;;7.49;100.00
13968;BME280;39536;52.198;9.920;2023-02-12T00:48:48;102726.34;;;7.50;100.00
13968;BME280;39536;52.198;9.920;2023-02-12T00:51:15;102733.34;;;7.54;100.00
13968;BME280;39536;52.198;9.920;2023-02-12T00:53:41;102729.03;;;7.56;100.00
13968;BME280;39536;52.198;9.920;2023-02-12T00:56:07;102738.47;;;7.51;100.00
13968;BME280;39536;52.198;9.920;2023-02-12T00:58:35;102741.03;;;7.50;100.00
13968;BME280;39536;52.198;9.920;2023-02-12T01:01:02;102746.22;;;7.48;100.00
13968;BME280;39536;52.198;9.920;2023-02-12T01:03:38;102738.38;;;7.45;100.00
13968;BME280;39536;52.198;9.920;2023-02-12T01:06:05;102743.50;;;7.42;100.00
13968;BME280;39536;52.198;9.920;2023-02-12T01:08:31;102746.22;;;7.48;100.00
13968;BME280;39536;52.198;9.920;2023-02-12T01:10:59;102749.56;;;7.44;100.00
13968;BME280;39536;52.198;9.920;2023-02-12T01:13:26;102732.22;;;7.40;100.00
13968;BME280;39536;52.198;9.920;2023-02-12T01:16:03;102745.31;;;7.46;100.00
13968;BME280;39536;52.198;9.920;2023-02-12T01:18:32;102744.38;;;7.43;100.00
13968;BME280;39536;52.198;9.920;2023-02-12T01:20:59;102750.38;;;7.38;100.00
13968;BME280;39536;52.198;9.920;2023-02-12T01:23:25;102757.28;;;7.39;100.00
13968;BME280;39536;52.198;9.920;2023-02-12T01:25:52;102751.34;;;7.47;100.00
13968;BME280;39536;52.198;9.920;2023-02-12T01:28:19;102755.63;;;7.42;100.00
13968;BME280;39536;52.198;9.920;2023-02-12T01:30:45;102749.53;;;7.41;100.00
13968;BME280;39536;52.198;9.920;2023-02-12T01:33:13;102746.06;;;7.39;100.00
13968;BME280;39536;52.198;9.920;2023-02-12T01:35:40;102755.56;;;7.40;100.00
13968;BME280;39536;52.198;9.920;2023-02-12T01:38:06;102738.25;;;7.37;100.00
13968;BME280;39536;52.198;9.920;2023-02-12T01:40:35;102755.56;;;7.38;100.00
13968;BME280;39536;52.198;9.920;2023-02-12T01:43:02;102761.56;;;7.37;100.00
13968;BME280;39536;52.198;9.920;2023-02-12T01:45:44;102755.50;;;7.35;100.00
13968;BME280;39536;52.198;9.920;2023-02-12T01:48:14;102751.13;;;7.33;100.00
13968;BME280;39536;52.198;9.920;2023-02-12T01:50:43;102757.19;;;7.35;100.00
13968;BME280;39536;52.198;9.920;2023-02-12T01:53:12;102750.22;;;7.29;100.00
13968;BME280;39536;52.198;9.920;2023-02-12T01:55:45;102762.16;;;7.21;100.00
13968;BME280;39536;52.198;9.920;2023-02-12T01:58:12;102748.44;;;7.27;100.00
13968;BME280;39536;52.198;9.920;2023-02-12T02:00:40;102752.81;;;7.29;100.00
13968;BME280;39536;52.198;9.920;2023-02-12T02:03:06;102744.13;;;7.27;100.00
13968;BME280;39536;52.198;9.920;2023-02-12T02:05:42;102744.88;;;7.20;100.00
13968;BME280;39536;52.198;9.920;2023-02-12T02:08:09;102768.13;;;7.15;100.00
13968;BME280;39536;52.198;9.920;2023-02-12T02:10:36;102754.41;;;7.23;100.00
13968;BME280;39536;52.198;9.920;2023-02-12T02:13:03;102750.00;;;7.17;100.00
13968;BME280;39536;52.198;9.920;2023-02-12T02:15:50;102755.19;;;7.17;100.00
13968;BME280;39536;52.198;9.920;2023-02-12T02:18:23;102750.06;;;7.22;100.00
13968;BME280;39536;52.198;9.920;2023-02-12T02:24:48;102755.25;;;7.20;100.00
13968;BME280;39536;52.198;9.920;2023-02-12T02:27:26;102751.69;;;7.13;100.00
13968;BME280;39536;52.198;9.920;2023-02-12T02:30:17;102754.28;;;7.15;100.00
13968;BME280;39536;52.198;9.920;2023-02-12T02:32:56;102753.38;;;7.13;100.00
13968;BME280;39536;52.198;9.920;2023-02-12T02:35:31;102748.22;;;7.14;100.00
13968;BME280;39536;52.198;9.920;2023-02-12T02:38:06;102757.72;;;7.14;100.00
13968;BME280;39536;52.198;9.920;2023-02-12T02:40:39;102751.56;;;7.07;100.00
13968;BME280;39536;52.198;9.920;2023-02-12T02:43:14;102745.59;;;7.11;100.00
13968;BME280;39536;52.198;9.920;2023-02-12T02:45:46;102759.34;;;7.07;100.00
13968;BME280;39536;52.198;9.920;2023-02-12T02:48:17;102749.81;;;7.06;100.00
13968;BME280;39536;52.198;9.920;2023-02-12T02:50:48;102743.69;;;7.01;100.00
13968;BME280;39536;52.198;9.920;2023-02-12T02:53:20;102749.81;;;7.05;100.00
13968;BME280;39536;52.198;9.920;2023-02-12T02:55:50;102756.53;;;6.95;100.00
13968;BME280;39536;52.198;9.920;2023-02-12T02:58:22;102754.88;;;6.99;100.00
13968;BME280;39536;52.198;9.920;2023-02-12T03:00:54;102753.94;;;6.95;100.00
13968;BME280;39536;52.198;9.920;2023-02-12T03:03:25;102766.91;;;6.97;100.00
13968;BME280;39536;52.198;9.920;2023-02-12T03:05:58;102763.34;;;6.91;100.00
13968;BME280;39536;52.198;9.920;2023-02-12T03:08:31;102765.13;;;6.94;100.00
13968;BME280;39536;52.198;9.920;2023-02-12T03:11:04;102755.53;;;6.88;100.00
13968;BME280;39536;52.198;9.920;2023-02-12T03:13:35;102759.94;;;6.94;100.00
13968;BME280;39536;52.198;9.920;2023-02-12T03:16:08;102773.69;;;6.90;100.00
13968;BME280;39536;52.198;9.920;2023-02-12T03:18:40;102779.75;;;6.90;100.00
13968;BME280;39536;52.198;9.920;2023-02-12T03:21:12;102773.66;;;6.87;100.00
13968;BME280;39536;52.198;9.920;2023-02-12T03:23:45;102773.66;;;6.88;100.00
13968;BME280;39536;52.198;9.920;2023-02-12T03:26:16;102772.84;;;6.91;100.00
13968;BME280;39536;52.198;9.920;2023-02-12T03:28:46;102767.66;;;6.91;100.00
13968;BME280;39536;52.198;9.920;2023-02-12T03:31:22;102774.66;;;6.95;100.00
13968;BME280;39536;52.198;9.920;2023-02-12T03:34:06;102777.16;;;6.89;100.00
13968;BME280;39536;52.198;9.920;2023-02-12T03:36:42;102790.97;;;6.91;100.00
13968;BME280;39536;52.198;9.920;2023-02-12T03:39:27;102766.66;;;6.83;100.00
13968;BME280;39536;52.198;9.920;2023-02-12T03:41:59;102795.22;;;6.86;100.00
13968;BME280;39536;52.198;9.920;2023-02-12T03:44:36;102790.91;;;6.86;100.00
13968;BME280;39536;52.198;9.920;2023-02-12T03:47:15;102793.44;;;6.83;100.00
13968;BME280;39536;52.198;9.920;2023-02-12T03:49:49;102799.50;;;6.84;100.00
13968;BME280;39536;52.198;9.920;2023-02-12T03:52:17;102790.88;;;6.85;100.00
13968;BME280;39536;52.198;9.920;2023-02-12T03:54:44;102792.66;;;6.87;100.00
13968;BME280;39536;52.198;9.920;2023-02-12T03:57:13;102802.16;;;6.88;100.00
13968;BME280;39536;52.198;9.920;2023-02-12T03:59:42;102798.63;;;6.83;100.00
13968;BME280;39536;52.198;9.920;2023-02-12T04:02:11;102802.94;;;6.83;100.00
13968;BME280;39536;52.198;9.920;2023-02-12T04:04:39;102803.88;;;6.86;100.00
13968;BME280;39536;52.198;9.920;2023-02-12T04:07:05;102806.34;;;6.82;100.00
13968;BME280;39536;52.198;9.920;2023-02-12T04:09:32;102812.38;;;6.81;100.00
13968;BME280;39536;52.198;9.920;2023-02-12T04:12:17;102818.41;;;6.80;100.00
13968;BME280;39536;52.198;9.920;2023-02-12T04:14:51;102815.84;;;6.81;100.00
13968;BME280;39536;52.198;9.920;2023-02-12T04:17:25;102814.03;;;6.77;100.00
13968;BME280;39536;52.198;9.920;2023-02-12T04:20:03;102825.94;;;6.69;100.00
13968;BME280;39536;52.198;9.920;2023-02-12T04:22:42;102826.88;;;6.71;100.00
13968;BME280;39536;52.198;9.920;2023-02-12T04:25:19;102825.94;;;6.69;100.00
13968;BME280;39536;52.198;9.920;2023-02-12T04:27:56;102826.81;;;6.68;100.00
13968;BME280;39536;52.198;9.920;2023-02-12T04:30:27;102830.38;;;6.73;100.00
13968;BME280;39536;52.198;9.920;2023-02-12T04:32:59;102822.50;;;6.68;100.00
13968;BME280;39536;52.198;9.920;2023-02-12T04:35:30;102829.47;;;6.71;100.00
13968;BME280;39536;52.198;9.920;2023-02-12T04:38:03;102835.44;;;6.67;100.00
13968;BME280;39536;52.198;9.920;2023-02-12T04:40:33;102840.75;;;6.75;100.00
13968;BME280;39536;52.198;9.920;2023-02-12T04:43:00;102846.91;;;6.80;100.00
13968;BME280;39536;52.198;9.920;2023-02-12T04:45:28;102849.38;;;6.74;100.00
13968;BME280;39536;52.198;9.920;2023-02-12T04:47:56;102850.13;;;6.69;100.00
13968;BME280;39536;52.198;9.920;2023-02-12T04:50:23;102849.25;;;6.67;100.00
13968;BME280;39536;52.198;9.920;2023-02-12T04:52:49;102851.78;;;6.66;100.00
13968;BME280;39536;52.198;9.920;2023-02-12T04:55:16;102861.41;;;6.71;100.00
13968;BME280;39536;52.198;9.920;2023-02-12T04:57:42;102861.41;;;6.71;100.00
13968;BME280;39536;52.198;9.920;2023-02-12T05:00:12;102864.72;;;6.66;100.00
13968;BME280;39536;52.198;9.920;2023-02-12T05:02:39;102861.28;;;6.65;100.00
13968;BME280;39536;52.198;9.920;2023-02-12T05:05:07;102865.66;;;6.68;100.00
13968;BME280;39536;52.198;9.920;2023-02-12T05:07:34;102862.13;;;6.64;100.00
13968;BME280;39536;52.198;9.920;2023-02-12T05:10:01;102857.00;;;6.67;100.00
13968;BME280;39536;52.198;9.920;2023-02-12T05:12:35;102850.97;;;6.68;100.00
13968;BME280;39536;52.198;9.920;2023-02-12T05:15:01;102862.22;;;6.69;100.00
13968;BME280;39536;52.198;9.920;2023-02-12T05:17:28;102856.09;;;6.64;100.00
13968;BME280;39536;52.198;9.920;2023-02-12T05:19:54;102851.72;;;6.61;100.00
13968;BME280;39536;52.198;9.920;2023-02-12T05:22:25;102852.63;;;6.65;100.00
13968;BME280;39536;52.198;9.920;2023-02-12T05:24:51;102851.63;;;6.58;100.00
13968;BME280;39536;52.198;9.920;2023-02-12T05:27:25;102850.72;;;6.56;100.00
13968;BME280;39536;52.198;9.920;2023-02-12T05:29:54;102858.56;;;6.59;100.00
13968;BME280;39536;52.198;9.920;2023-02-12T05:32:24;102857.63;;;6.56;100.00
13968;BME280;39536;52.198;9.920;2023-02-12T05:34:50;102850.66;;;6.53;100.00
13968;BME280;39536;52.198;9.920;2023-02-12T05:37:19;102856.72;;;6.54;100.00
13968;BME280;39536;52.198;9.920;2023-02-12T05:39:49;102851.47;;;6.51;100.00
13968;BME280;39536;52.198;9.920;2023-02-12T05:42:15;102853.97;;;6.47;100.00
13968;BME280;39536;52.198;9.920;2023-02-12T05:44:42;102856.63;;;6.49;100.00
13968;BME280;39536;52.198;9.920;2023-02-12T05:47:12;102849.72;;;6.50;100.00
13968;BME280;39536;52.198;9.920;2023-02-12T05:49:39;102861.00;;;6.53;100.00
13968;BME280;39536;52.198;9.920;2023-02-12T05:52:12;102856.75;;;6.55;100.00
13968;BME280;39536;52.198;9.920;2023-02-12T05:54:39;102853.19;;;6.50;100.00
13968;BME280;39536;52.198;9.920;2023-02-12T05:57:07;102859.28;;;6.54;100.00
13968;BME280;39536;52.198;9.920;2023-02-12T05:59:33;102859.13;;;6.46;100.00
13968;BME280;39536;52.198;9.920;2023-02-12T06:02:02;102866.09;;;6.48;100.00
13968;BME280;39536;52.198;9.920;2023-02-12T06:04:29;102862.59;;;6.45;100.00
13968;BME280;39536;52.198;9.920;2023-02-12T06:06:56;102871.16;;;6.44;100.00
13968;BME280;39536;52.198;9.920;2023-02-12T06:09:22;102872.09;;;6.47;100.00
13968;BME280;39536;52.198;9.920;2023-02-12T06:11:52;102872.09;;;6.47;100.00
13968;BME280;39536;52.198;9.920;2023-02-12T06:14:25;102866.13;;;6.50;100.00
13968;BME280;39536;52.198;9.920;2023-02-12T06:16:51;102865.38;;;6.56;100.00
13968;BME280;39536;52.198;9.920;2023-02-12T06:19:20;102870.50;;;6.53;100.00
13968;BME280;39536;52.198;9.920;2023-02-12T06:21:49;102868.63;;;6.45;100.00
13968;BME280;39536;52.198;9.920;2023-02-12T06:24:16;102863.53;;;6.50;100.00
13968;BME280;39536;52.198;9.920;2023-02-12T06:26:44;102863.59;;;6.52;100.00
13968;BME280;39536;52.198;9.920;2023-02-12T06:29:10;102861.00;;;6.52;100.00
13968;BME280;39536;52.198;9.920;2023-02-12T06:31:39;102857.59;;;6.54;100.00
13968;BME280;39536;52.198;9.920;2023-02-12T06:34:08;102861.13;;;6.58;100.00
13968;BME280;39536;52.198;9.920;2023-02-12T06:36:36;102866.19;;;6.52;100.00
13968;BME280;39536;52.198;9.920;2023-02-12T06:39:03;102871.22;;;6.45;100.00
13968;BME280;39536;52.198;9.920;2023-02-12T06:41:29;102867.75;;;6.45;100.00
13968;BME280;39536;52.198;9.920;2023-02-12T06:43:56;102870.44;;;6.50;100.00
13968;BME280;39536;52.198;9.920;2023-02-12T06:46:22;102867.97;;;6.56;100.00
13968;BME280;39536;52.198;9.920;2023-02-12T06:48:53;102877.53;;;6.58;100.00
13968;BME280;39536;52.198;9.920;2023-02-12T06:51:19;102879.13;;;6.53;100.00
13968;BME280;39536;52.198;9.920;2023-02-12T06:53:48;102889.19;;;6.39;100.00
13968;BME280;39536;52.198;9.920;2023-02-12T06:56:14;102884.91;;;6.40;100.00
13968;BME280;39536;52.198;9.920;2023-02-12T06:58:42;102890.00;;;6.38;100.00
13968;BME280;39536;52.198;9.920;2023-02-12T07:01:11;102895.97;;;6.34;100.00
13968;BME280;39536;52.198;9.920;2023-02-12T07:03:39;102891.66;;;6.35;100.00
13968;BME280;39536;52.198;9.920;2023-02-12T07:06:08;102898.69;;;6.39;100.00
13968;BME280;39536;52.198;9.920;2023-02-12T07:08:35;102903.94;;;6.42;100.00
13968;BME280;39536;52.198;9.920;2023-02-12T07:11:02;102916.91;;;6.43;100.00
13968;BME280;39536;52.198;9.920;2023-02-12T07:13:28;102919.59;;;6.48;100.00
13968;BME280;39536;52.198;9.920;2023-02-12T07:15:55;102917.09;;;6.53;100.00
13968;BME280;39536;52.198;9.920;2023-02-12T07:18:22;102915.44;;;6.55;100.00
13968;BME280;39536;52.198;9.920;2023-02-12T07:20:48;102920.69;;;6.58;100.00
13968;BME280;39536;52.198;9.920;2023-02-12T07:23:16;102914.59;;;6.57;100.00
13968;BME280;39536;52.198;9.920;2023-02-12T07:25:42;102919.97;;;6.65;100.00
13968;BME280;39536;52.198;9.920;2023-02-12T07:28:09;102915.66;;;6.65;100.00
13968;BME280;39536;52.198;9.920;2023-02-12T07:30:36;102920.81;;;6.64;100.00
13968;BME280;39536;52.198;9.920;2023-02-12T07:33:02;102921.03;;;6.73;100.00
13968;BME280;39536;52.198;9.920;2023-02-12T07:35:29;102929.72;;;6.77;100.00
13968;BME280;39536;52.198;9.920;2023-02-12T07:37:55;102931.31;;;6.70;100.00
13968;BME280;39536;52.198;9.920;2023-02-12T07:40:23;102922.78;;;6.76;100.00
13968;BME280;39536;52.198;9.920;2023-02-12T07:42:53;102929.63;;;6.72;100.00
13968;BME280;39536;52.198;9.920;2023-02-12T07:45:20;102925.41;;;6.77;100.00
13968;BME280;39536;52.198;9.920;2023-02-12T07:47:46;102933.19;;;6.77;100.00
13968;BME280;39536;52.198;9.920;2023-02-12T07:50:13;102931.53;;;6.79;100.00
13968;BME280;39536;52.198;9.920;2023-02-12T07:52:39;102930.81;;;6.88;100.00
13968;BME280;39536;52.198;9.920;2023-02-12T07:55:07;102930.28;;;7.03;100.00
13968;BME280;39536;52.198;9.920;2023-02-12T07:57:35;102934.66;;;7.07;100.00
13968;BME280;39536;52.198;9.920;2023-02-12T08:00:03;102933.84;;;7.08;100.00
13968;BME280;39536;52.198;9.920;2023-02-12T08:02:29;102931.38;;;7.14;100.00
13968;BME280;39536;52.198;9.920;2023-02-12T08:04:56;102936.59;;;7.15;100.00
13968;BME280;39536;52.198;9.920;2023-02-12T08:07:23;102940.91;;;7.15;100.00
13968;BME280;39536;52.198;9.920;2023-02-12T08:09:50;102937.25;;;7.05;100.00
13968;BME280;39536;52.198;9.920;2023-02-12T08:12:18;102926.91;;;7.07;100.00
13968;BME280;39536;52.198;9.920;2023-02-12T08:14:45;102935.66;;;7.12;100.00
13968;BME280;39536;52.198;9.920;2023-02-12T08:17:12;102929.09;;;7.29;100.00
13968;BME280;39536;52.198;9.920;2023-02-12T08:19:41;102934.41;;;7.37;100.00
13968;BME280;39536;52.198;9.920;2023-02-12T08:22:08;102936.25;;;7.43;100.00
13968;BME280;39536;52.198;9.920;2023-02-12T08:24:34;102932.81;;;7.44;100.00
13968;BME280;39536;52.198;9.920;2023-02-12T08:27:01;102938.06;;;7.47;100.00
13968;BME280;39536;52.198;9.920;2023-02-12T08:29:28;102934.75;;;7.55;100.00
13968;BME280;39536;52.198;9.920;2023-02-12T08:31:58;102935.91;;;7.70;100.00
13968;BME280;39536;52.198;9.920;2023-02-12T08:34:26;102942.06;;;7.76;100.00
13968;BME280;39536;52.198;9.920;2023-02-12T08:36:54;102948.19;;;7.81;100.00
13968;BME280;39536;52.198;9.920;2023-02-12T08:39:21;102946.53;;;7.83;100.00
13968;BME280;39536;52.198;9.920;2023-02-12T08:41:48;102955.22;;;7.85;100.00
13968;BME280;39536;52.198;9.920;2023-02-12T08:44:15;102953.31;;;7.77;100.00
13968;BME280;39536;52.198;9.920;2023-02-12T08:46:44;102965.47;;;7.79;100.00
13968;BME280;39536;52.198;9.920;2023-02-12T08:49:14;102962.78;;;7.73;100.00
13968;BME280;39536;52.198;9.920;2023-02-12T08:51:43;102957.47;;;7.69;100.00
13968;BME280;39536;52.198;9.920;2023-02-12T08:54:11;102963.41;;;7.61;100.00
13968;BME280;39536;52.198;9.920;2023-02-12T08:56:38;102958.22;;;7.61;100.00
13968;BME280;39536;52.198;9.920;2023-02-12T08:59:06;102973.53;;;7.48;100.00
13968;BME280;39536;52.198;9.920;2023-02-12T09:01:35;102964.78;;;7.43;100.00
13968;BME280;39536;52.198;9.920;2023-02-12T09:04:04;102966.69;;;7.51;100.00
13968;BME280;39536;52.198;9.920;2023-02-12T09:06:36;102965.03;;;7.56;100.00
13968;BME280;39536;52.198;9.920;2023-02-12T09:09:06;102967.63;;;7.55;100.00
13968;BME280;39536;52.198;9.920;2023-02-12T09:11:33;102970.09;;;7.50;100.00
13968;BME280;39536;52.198;9.920;2023-02-12T09:14:05;102969.59;;;7.68;100.00
13968;BME280;39536;52.198;9.920;2023-02-12T09:16:33;102980.94;;;7.75;100.00
13968;BME280;39536;52.198;9.920;2023-02-12T09:19:03;102975.53;;;7.62;100.00
13968;BME280;39536;52.198;9.920;2023-02-12T09:21:29;102977.47;;;7.74;100.00
13968;BME280;39536;52.198;9.920;2023-02-12T09:23:57;102970.75;;;7.84;100.00
13968;BME280;39536;52.198;9.920;2023-02-12T09:26:34;102975.97;;;7.87;100.00
13968;BME280;39536;52.198;9.920;2023-02-12T09:29:02;102984.63;;;7.86;100.00
13968;BME280;39536;52.198;9.920;2023-02-12T09:31:30;102983.72;;;7.84;100.00
13968;BME280;39536;52.198;9.920;2023-02-12T09:33:58;102984.50;;;7.80;100.00
13968;BME280;39536;52.198;9.920;2023-02-12T09:36:26;102986.53;;;7.95;100.00
13968;BME280;39536;52.198;9.920;2023-02-12T09:38:57;102991.56;;;7.87;100.00
13968;BME280;39536;52.198;9.920;2023-02-12T09:41:54;102999.63;;;8.02;100.00
13968;BME280;39536;52.198;9.920;2023-02-12T09:44:34;102992.69;;;8.01;100.00
13968;BME280;39536;52.198;9.920;2023-02-12T09:47:08;102994.38;;;7.99;100.00
13968;BME280;39536;52.198;9.920;2023-02-12T09:52:38;103000.75;;;8.17;100.00
13968;BME280;39536;52.198;9.920;2023-02-12T09:55:10;102989.50;;;8.16;100.00
13968;BME280;39536;52.198;9.920;2023-02-12T09:57:40;102997.44;;;8.28;100.00
13968;BME280;39536;52.198;9.920;2023-02-12T10:00:09;102984.47;;;8.28;100.00
13968;BME280;39536;52.198;9.920;2023-02-12T10:02:39;102994.97;;;8.34;100.00
13968;BME280;39536;52.198;9.920;2023-02-12T10:05:14;102995.19;;;8.45;100.00
13968;BME280;39536;52.198;9.920;2023-02-12T10:07:56;102996.16;;;8.53;100.00
13968;BME280;39536;52.198;9.920;2023-02-12T10:10:40;102999.28;;;8.32;100.00
13968;BME280;39536;52.198;9.920;2023-02-12T10:13:17;102997.75;;;8.44;100.00
13968;BME280;39536;52.198;9.920;2023-02-12T10:15:51;102994.31;;;8.45;100.00
13968;BME280;39536;52.198;9.920;2023-02-12T10:18:35;102998.78;;;8.55;100.00
13968;BME280;39536;52.198;9.920;2023-02-12T10:21:13;102997.19;;;8.63;100.00
13968;BME280;39536;52.198;9.920;2023-02-12T10:23:59;103002.50;;;8.71;100.00
13968;BME280;39536;52.198;9.920;2023-02-12T10:26:33;103000.81;;;8.73;100.00
13968;BME280;39536;52.198;9.920;2023-02-12T10:29:10;102997.94;;;8.54;100.00
13968;BME280;39536;52.198;9.920;2023-02-12T10:31:41;103004.47;;;8.32;100.00
13968;BME280;39536;52.198;9.920;2023-02-12T10:34:14;103002.47;;;8.18;100.00
13968;BME280;39536;52.198;9.920;2023-02-12T10:36:44;102999.94;;;8.22;100.00
13968;BME280;39536;52.198;9.920;2023-02-12T10:39:14;103007.78;;;8.25;100.00
13968;BME280;39536;52.198;9.920;2023-02-12T10:41:49;103003.50;;;8.27;100.00
13968;BME280;39536;52.198;9.920;2023-02-12T10:44:18;102995.84;;;8.35;100.00
13968;BME280;39536;52.198;9.920;2023-02-12T10:46:45;102997.44;;;8.27;100.00
13968;BME280;39536;52.198;9.920;2023-02-12T10:49:14;102996.00;;;8.41;100.00
13968;BME280;39536;52.198;9.920;2023-02-12T10:51:56;103008.41;;;8.61;100.00
13968;BME280;39536;52.198;9.920;2023-02-12T10:54:37;103004.84;;;8.55;100.00
13968;BME280;39536;52.198;9.920;2023-02-12T10:57:14;103001.34;;;8.53;100.00
13968;BME280;39536;52.198;9.920;2023-02-12T10:59:45;103000.53;;;8.54;100.00
13968;BME280;39536;52.198;9.920;2023-02-12T11:02:23;103003.22;;;8.61;100.00
13968;BME280;39536;52.198;9.920;2023-02-12T11:04:51;102995.34;;;8.56;100.00
13968;BME280;39536;52.198;9.920;2023-02-12T11:07:21;102995.38;;;8.58;100.00
13968;BME280;39536;52.198;9.920;2023-02-12T11:09:57;102992.72;;;8.54;100.00
13968;BME280;39536;52.198;9.920;2023-02-12T11:12:39;102994.50;;;8.57;100.00
13968;BME280;39536;52.198;9.920;2023-02-12T11:15:14;102997.94;;;8.54;100.00
13968;BME280;39536;52.198;9.920;2023-02-12T11:17:44;102990.31;;;8.68;100.00
13968;BME280;39536;52.198;9.920;2023-02-12T11:20:24;102989.50;;;8.69;100.00
13968;BME280;39536;52.198;9.920;2023-02-12T11:22:53;102989.53;;;8.72;100.00
13968;BME280;39536;52.198;9.920;2023-02-12T11:25:25;102989.50;;;8.69;100.00
13968;BME280;39536;52.198;9.920;2023-02-12T11:28:13;102983.50;;;8.73;100.00
13968;BME280;39536;52.198;9.920;2023-02-12T11:30:53;102991.34;;;8.78;100.00
13968;BME280;39536;52.198;9.920;2023-02-12T11:33:26;102992.00;;;8.63;100.00
13968;BME280;39536;52.198;9.920;2023-02-12T11:35:55;102986.84;;;8.66;100.00
13968;BME280;39536;52.198;9.920;2023-02-12T11:38:38;102982.53;;;8.68;100.00
13968;BME280;39536;52.198;9.920;2023-02-12T11:41:22;102987.78;;;8.71;100.00
13968;BME280;39536;52.198;9.920;2023-02-12T11:43:55;102980.13;;;8.81;100.00
13968;BME280;39536;52.198;9.920;2023-02-12T11:46:25;102980.19;;;8.85;100.00
13968;BME280;39536;52.198;9.920;2023-02-12T11:48:55;102980.03;;;8.73;100.00
13968;BME280;39536;52.198;9.920;2023-02-12T11:51:27;102973.13;;;8.78;100.00
13968;BME280;39536;52.198;9.920;2023-02-12T11:53:56;102974.09;;;8.83;100.00
13968;BME280;39536;52.198;9.920;2023-02-12T11:56:39;102969.88;;;8.93;100.00
13968;BME280;39536;52.198;9.920;2023-02-12T11:59:18;102969.19;;;9.05;100.00
13968;BME280;39536;52.198;9.920;2023-02-12T12:01:47;102959.88;;;9.23;100.00
13968;BME280;39536;52.198;9.920;2023-02-12T12:04:22;102957.31;;;9.28;100.00
13968;BME280;39536;52.198;9.920;2023-02-12T12:06:52;102961.72;;;9.32;100.00
13968;BME280;39536;52.198;9.920;2023-02-12T12:09:23;102959.16;;;9.37;100.00
13968;BME280;39536;52.198;9.920;2023-02-12T12:12:03;102953.16;;;9.42;100.00
13968;BME280;39536;52.198;9.920;2023-02-12T12:14:41;102960.13;;;9.46;100.00
13968;BME280;39536;52.198;9.920;2023-02-12T12:17:37;102959.13;;;9.32;100.00
13968;BME280;39536;52.198;9.920;2023-02-12T12:20:27;102964.09;;;9.14;100.00
13968;BME280;39536;52.198;9.920;2023-02-12T12:23:02;102963.94;;;9.01;100.00
13968;BME280;39536;52.198;9.920;2023-02-12T12:25:43;102959.34;;;8.82;100.00
13968;BME280;39536;52.198;9.920;2023-02-12T12:28:25;102963.03;;;8.99;100.00
13968;BME280;39536;52.198;9.920;2023-02-12T12:31:02;102955.34;;;9.09;100.00
13968;BME280;39536;52.198;9.920;2023-02-12T12:33:43;102962.31;;;9.10;100.00
13968;BME280;39536;52.198;9.920;2023-02-12T12:36:47;102958.75;;;9.01;100.00
13968;BME280;39536;52.198;9.920;2023-02-12T12:39:25;102958.75;;;9.03;100.00
13968;BME280;39536;52.198;9.920;2023-02-12T12:45:29;102945.75;;;9.01;100.00
13968;BME280;39536;52.198;9.920;2023-02-12T12:48:11;102944.97;;;9.09;100.00
13968;BME280;39536;52.198;9.920;2023-02-12T12:50:55;102939.84;;;9.13;100.00
13968;BME280;39536;52.198;9.920;2023-02-12T12:53:34;102943.34;;;9.17;100.00
13968;BME280;39536;52.198;9.920;2023-02-12T12:56:18;102939.94;;;9.22;100.00
13968;BME280;39536;52.198;9.920;2023-02-12T12:59:02;102938.34;;;9.35;100.00
13968;BME280;39536;52.198;9.920;2023-02-12T13:02:14;102927.88;;;9.29;100.00
13968;BME280;39536;52.198;9.920;2023-02-12T13:05:32;102926.09;;;9.27;100.00
13968;BME280;39536;52.198;9.920;2023-02-12T13:08:13;102926.06;;;9.25;100.00
13968;BME280;39536;52.198;9.920;2023-02-12T13:10:47;102922.50;;;9.14;100.00
13968;BME280;39536;52.198;9.920;2023-02-12T13:13:21;102924.16;;;9.07;100.00
13968;BME280;39536;52.198;9.920;2023-02-12T13:15:55;102925.84;;;9.04;100.00
13968;BME280;39536;52.198;9.920;2023-02-12T13:18:37;102923.31;;;9.10;100.00
13968;BME280;39536;52.198;9.920;2023-02-12T13:21:14;102916.25;;;8.99;100.00
13968;BME280;39536;52.198;9.920;2023-02-12T13:23:49;102921.53;;;9.06;100.00